Time,TemperatureF,DewpointF,PressureIn,WindDirection,WindDirectionDegrees,WindSpeedMPH,WindSpeedGustMPH,Humidity,HourlyPrecipIn,Conditions,Clouds,dailyrainin,SoftwareType,DateUTC
2013-07-11 00:01:00,69.4,62.6,29.80,SW,227,0.0,0.0,79,0.00,,---,0.00,VWS V14.01,2013-07-11 07:01:00,
2013-07-11 00:11:00,69.4,63.0,29.80,SW,227,0.0,0.0,80,0.00,,---,0.00,VWS V14.01,2013-07-11 07:11:00,
2013-07-11 00:16:00,69.3,62.9,29.82,SW,227,0.0,0.0,80,0.00,,---,0.00,VWS V14.01,2013-07-11 07:16:00,
2013-07-11 00:26:00,69.3,62.9,29.82,SW,227,0.0,0.0,80,0.00,,---,0.00,VWS V14.01,2013-07-11 07:26:00,
2013-07-11 00:31:00,69.3,62.9,29.81,SW,227,0.0,0.0,80,0.00,,---,0.00,VWS V14.01,2013-07-11 07:31:00,
2013-07-11 00:36:00,69.3,62.9,29.81,SW,227,0.0,0.0,80,0.00,,---,0.00,VWS V14.01,2013-07-11 07:36:00,
2013-07-11 00:46:00,69.1,62.7,29.81,SW,227,0.0,0.0,80,0.00,,---,0.00,VWS V14.01,2013-07-11 07:46:00,
2013-07-11 00:51:00,69.3,62.9,29.81,SW,227,0.0,0.0,80,0.00,,---,0.00,VWS V14.01,2013-07-11 07:51:00,
2013-07-11 01:01:00,69.3,62.9,29.82,SW,227,0.0,0.0,80,0.00,,---,0.00,VWS V14.01,2013-07-11 08:01:00,
2013-07-11 01:06:00,69.3,62.9,29.82,SW,227,0.0,0.0,80,0.00,,---,0.00,VWS V14.01,2013-07-11 08:06:00,
2013-07-11 01:11:00,69.3,62.9,29.82,SW,227,0.0,0.0,80,0.00,,---,0.00,VWS V14.01,2013-07-11 08:11:00,
2013-07-11 01:21:00,69.1,62.7,29.82,SW,227,0.0,0.0,80,0.00,,---,0.00,VWS V14.01,2013-07-11 08:21:00,
2013-07-11 01:26:00,69.1,62.7,29.82,SW,227,0.0,0.0,80,0.00,,---,0.00,VWS V14.01,2013-07-11 08:26:00,
2013-07-11 01:36:00,68.9,62.5,29.83,SW,227,0.0,0.0,80,0.00,,---,0.00,VWS V14.01,2013-07-11 08:36:00,
2013-07-11 01:41:00,68.8,62.4,29.83,SW,227,0.0,0.0,80,0.00,,---,0.00,VWS V14.01,2013-07-11 08:41:00,
2013-07-11 01:46:00,68.8,62.4,29.83,SW,227,0.0,0.0,80,0.00,,---,0.00,VWS V14.01,2013-07-11 08:46:00,
2013-07-11 01:56:00,68.6,62.5,29.83,SW,227,0.0,0.0,81,0.00,,---,0.00,VWS V14.01,2013-07-11 08:56:00,
2013-07-11 02:01:00,68.4,62.3,29.83,SW,227,0.0,0.0,81,0.00,,---,0.00,VWS V14.01,2013-07-11 09:01:00,
2013-07-11 02:11:00,68.3,62.2,29.83,SW,227,0.0,0.0,81,0.00,,---,0.00,VWS V14.01,2013-07-11 09:11:00,
2013-07-11 02:16:00,68.1,62.1,29.83,SW,227,0.0,0.0,81,0.00,,---,0.00,VWS V14.01,2013-07-11 09:16:00,
2013-07-11 02:26:00,67.9,61.9,29.83,SW,227,0.0,0.0,81,0.00,,---,0.00,VWS V14.01,2013-07-11 09:26:00,
2013-07-11 02:31:00,67.8,62.1,29.83,SW,227,0.0,0.0,82,0.00,,---,0.00,VWS V14.01,2013-07-11 09:31:00,
2013-07-11 02:41:00,67.6,61.9,29.83,SW,227,0.0,0.0,82,0.00,,---,0.00,VWS V14.01,2013-07-11 09:41:00,
2013-07-11 02:46:00,67.4,61.7,29.83,SW,227,0.0,0.0,82,0.00,,---,0.00,VWS V14.01,2013-07-11 09:46:00,
2013-07-11 02:56:00,67.3,61.6,29.83,SW,227,0.0,0.0,82,0.00,,---,0.00,VWS V14.01,2013-07-11 09:56:00,
2013-07-11 03:01:00,67.3,61.6,29.83,SW,227,0.0,0.0,82,0.00,,---,0.00,VWS V14.01,2013-07-11 10:01:00,
2013-07-11 03:06:00,67.1,61.4,29.83,SW,227,0.0,0.0,82,0.00,,---,0.00,VWS V14.01,2013-07-11 10:06:00,
2013-07-11 03:16:00,66.9,61.6,29.83,SW,227,0.0,0.0,83,0.00,,---,0.00,VWS V14.01,2013-07-11 10:16:00,
2013-07-11 03:21:00,66.9,61.6,29.83,SW,227,0.0,0.0,83,0.00,,---,0.00,VWS V14.01,2013-07-11 10:21:00,
2013-07-11 03:26:00,66.8,61.5,29.83,SW,227,0.0,0.0,83,0.00,,---,0.00,VWS V14.01,2013-07-11 10:26:00,
2013-07-11 03:36:00,66.8,61.8,29.82,SW,227,0.0,0.0,84,0.00,,---,0.00,VWS V14.01,2013-07-11 10:36:00,
2013-07-11 03:46:00,66.6,61.6,29.82,SW,227,0.0,0.0,84,0.00,,---,0.00,VWS V14.01,2013-07-11 10:46:00,
2013-07-11 03:56:00,66.6,61.6,29.82,SW,227,0.0,0.0,84,0.00,,---,0.00,VWS V14.01,2013-07-11 10:56:00,
2013-07-11 04:06:00,66.4,61.4,29.81,SW,227,0.0,0.0,84,0.00,,---,0.00,VWS V14.01,2013-07-11 11:06:00,
2013-07-11 04:11:00,66.6,62.0,29.81,SW,227,0.0,0.0,85,0.00,,---,0.00,VWS V14.01,2013-07-11 11:11:00,
2013-07-11 04:16:00,66.4,61.8,29.80,SW,227,0.0,0.0,85,0.00,,---,0.00,VWS V14.01,2013-07-11 11:16:00,
2013-07-11 04:21:00,66.4,61.8,29.80,SW,227,0.0,0.0,85,0.00,,---,0.00,VWS V14.01,2013-07-11 11:21:00,
2013-07-11 04:31:00,66.4,61.8,29.80,SW,227,0.0,0.0,85,0.00,,---,0.00,VWS V14.01,2013-07-11 11:31:00,
2013-07-11 04:36:00,66.4,61.8,29.80,SW,227,0.0,0.0,85,0.00,,---,0.00,VWS V14.01,2013-07-11 11:36:00,
2013-07-11 04:41:00,66.3,61.7,29.80,SW,227,0.0,0.0,85,0.00,,---,0.00,VWS V14.01,2013-07-11 11:41:00,
2013-07-11 04:46:00,66.3,61.7,29.80,SW,227,0.0,0.0,85,0.00,,---,0.00,VWS V14.01,2013-07-11 11:46:00,
2013-07-11 04:51:00,66.3,62.0,29.80,SW,227,0.0,0.0,86,0.00,,---,0.00,VWS V14.01,2013-07-11 11:51:00,
2013-07-11 05:01:00,66.3,62.0,29.80,SW,227,0.0,0.0,86,0.00,,---,0.00,VWS V14.01,2013-07-11 12:01:00,
2013-07-11 05:06:00,66.3,62.0,29.80,SW,227,0.0,0.0,86,0.00,,---,0.00,VWS V14.01,2013-07-11 12:06:00,
2013-07-11 05:16:00,66.4,62.1,29.81,SW,227,0.0,0.0,86,0.00,,---,0.00,VWS V14.01,2013-07-11 12:16:00,
2013-07-11 05:21:00,66.4,62.1,29.81,SW,227,0.0,0.0,86,0.00,,---,0.00,VWS V14.01,2013-07-11 12:21:00,
2013-07-11 05:26:00,66.6,62.3,29.81,SW,227,0.0,0.0,86,0.00,,---,0.00,VWS V14.01,2013-07-11 12:26:00,
2013-07-11 05:31:00,66.6,62.3,29.82,SW,227,0.0,0.0,86,0.00,,---,0.00,VWS V14.01,2013-07-11 12:31:00,
2013-07-11 05:41:00,66.8,62.5,29.82,SW,227,0.0,0.0,86,0.00,,---,0.00,VWS V14.01,2013-07-11 12:41:00,
2013-07-11 05:46:00,66.8,62.5,29.82,SW,227,0.0,0.0,86,0.00,,---,0.00,VWS V14.01,2013-07-11 12:46:00,
2013-07-11 05:51:00,66.8,62.5,29.82,SW,227,0.0,0.0,86,0.00,,---,0.00,VWS V14.01,2013-07-11 12:51:00,
2013-07-11 05:56:00,66.8,62.5,29.82,SW,227,0.0,0.0,86,0.00,,---,0.00,VWS V14.01,2013-07-11 12:56:00,
2013-07-11 06:01:00,66.8,62.5,29.83,SW,227,0.0,0.0,86,0.00,,---,0.00,VWS V14.01,2013-07-11 13:01:00,
2013-07-11 06:06:00,66.8,62.5,29.83,SW,227,0.0,0.0,86,0.00,,---,0.00,VWS V14.01,2013-07-11 13:06:00,
2013-07-11 06:11:00,66.8,62.5,29.83,SW,227,0.0,0.0,86,0.00,,---,0.00,VWS V14.01,2013-07-11 13:11:00,
2013-07-11 06:21:00,66.8,62.5,29.83,SW,227,0.0,0.0,86,0.00,,---,0.00,VWS V14.01,2013-07-11 13:21:00,
2013-07-11 06:26:00,66.8,62.5,29.83,SW,227,0.0,0.0,86,0.00,,---,0.00,VWS V14.01,2013-07-11 13:26:00,
2013-07-11 06:31:00,66.8,62.5,29.83,SW,227,0.0,0.0,86,0.00,,---,0.00,VWS V14.01,2013-07-11 13:31:00,
2013-07-11 06:36:00,66.8,62.5,29.83,SW,227,0.0,0.0,86,0.00,,---,0.00,VWS V14.01,2013-07-11 13:36:00,
2013-07-11 06:46:00,66.6,62.3,29.83,SW,227,0.0,0.0,86,0.00,,---,0.00,VWS V14.01,2013-07-11 13:46:00,
2013-07-11 06:56:00,66.6,62.3,29.83,SW,227,0.0,0.0,86,0.00,,---,0.00,VWS V14.01,2013-07-11 13:56:00,
2013-07-11 07:06:00,66.8,62.5,29.84,SW,227,0.0,0.0,86,0.00,,---,0.00,VWS V14.01,2013-07-11 14:06:00,
2013-07-11 07:11:00,66.9,62.6,29.84,SW,227,0.0,0.0,86,0.00,,---,0.00,VWS V14.01,2013-07-11 14:11:00,
2013-07-11 07:16:00,67.1,62.8,29.84,SW,227,0.0,0.0,86,0.00,,---,0.00,VWS V14.01,2013-07-11 14:16:00,
2013-07-11 07:21:00,67.1,62.8,29.84,SW,227,0.0,0.0,86,0.00,,---,0.00,VWS V14.01,2013-07-11 14:21:00,
2013-07-11 07:26:00,67.3,63.0,29.84,SW,227,0.0,0.0,86,0.00,,---,0.00,VWS V14.01,2013-07-11 14:26:00,
2013-07-11 07:31:00,67.3,63.0,29.85,SW,227,0.0,0.0,86,0.00,,---,0.00,VWS V14.01,2013-07-11 14:31:00,
2013-07-11 07:36:00,67.4,63.1,29.85,SW,227,0.0,0.0,86,0.00,,---,0.00,VWS V14.01,2013-07-11 14:36:00,
2013-07-11 07:46:00,67.6,63.3,29.85,SW,227,0.0,0.0,86,0.00,,---,0.00,VWS V14.01,2013-07-11 14:46:00,
2013-07-11 07:56:00,67.8,63.5,29.85,SW,227,0.0,0.0,86,0.00,,---,0.00,VWS V14.01,2013-07-11 14:56:00,
2013-07-11 08:01:00,67.8,63.5,29.85,SW,227,0.0,0.0,86,0.00,,---,0.00,VWS V14.01,2013-07-11 15:01:00,
2013-07-11 08:06:00,67.9,63.6,29.85,SW,227,0.0,0.0,86,0.00,,---,0.00,VWS V14.01,2013-07-11 15:06:00,
2013-07-11 08:11:00,68.1,63.8,29.85,SW,227,0.0,0.0,86,0.00,,---,0.00,VWS V14.01,2013-07-11 15:11:00,
2013-07-11 08:16:00,68.1,63.8,29.86,SW,227,0.0,0.0,86,0.00,,---,0.00,VWS V14.01,2013-07-11 15:16:00,
2013-07-11 08:26:00,68.3,64.0,29.86,SW,227,0.0,0.0,86,0.00,,---,0.00,VWS V14.01,2013-07-11 15:26:00,
2013-07-11 08:46:00,68.4,63.7,29.86,SW,227,0.0,0.0,85,0.00,,---,0.00,VWS V14.01,2013-07-11 15:46:00,
2013-07-11 09:01:00,68.6,63.9,29.87,SW,227,0.0,0.0,85,0.00,,---,0.00,VWS V14.01,2013-07-11 16:01:00,
2013-07-11 09:06:00,68.6,63.9,29.87,SW,227,0.0,0.0,85,0.00,,---,0.00,VWS V14.01,2013-07-11 16:06:00,
2013-07-11 09:21:00,68.8,64.1,29.87,SW,227,0.0,0.0,85,0.00,,---,0.00,VWS V14.01,2013-07-11 16:21:00,
2013-07-11 09:31:00,68.9,64.2,29.87,SW,227,0.0,0.0,85,0.00,,---,0.00,VWS V14.01,2013-07-11 16:31:00,
2013-07-11 09:36:00,69.3,64.6,29.87,SW,227,0.0,0.0,85,0.00,,---,0.00,VWS V14.01,2013-07-11 16:36:00,
2013-07-11 09:41:00,69.4,64.7,29.87,SW,227,0.0,0.0,85,0.00,,---,0.00,VWS V14.01,2013-07-11 16:41:00,
2013-07-11 09:51:00,69.9,64.5,29.87,SW,227,0.0,0.0,83,0.00,,---,0.00,VWS V14.01,2013-07-11 16:51:00,
2013-07-11 09:56:00,70.1,64.7,29.87,SW,227,0.0,0.0,83,0.00,,---,0.00,VWS V14.01,2013-07-11 16:56:00,
2013-07-11 10:01:00,70.3,64.6,29.87,WSW,253,0.0,0.0,82,0.00,,---,0.00,VWS V14.01,2013-07-11 17:01:00,
2013-07-11 10:21:00,71.5,64.7,29.87,NNW,329,0.0,0.0,79,0.00,,---,0.00,VWS V14.01,2013-07-11 17:21:00,
2013-07-11 10:26:00,71.6,64.4,29.87,NNW,329,0.0,0.0,78,0.00,,---,0.00,VWS V14.01,2013-07-11 17:26:00,
2013-07-11 10:31:00,71.8,64.2,29.87,NNW,329,0.0,0.0,77,0.00,,---,0.00,VWS V14.01,2013-07-11 17:31:00,
2013-07-11 10:36:00,72.1,64.5,29.87,NNW,329,0.0,0.0,77,0.00,,---,0.00,VWS V14.01,2013-07-11 17:36:00,
2013-07-11 10:46:00,72.5,64.5,29.87,NNW,329,0.0,0.0,76,0.00,,---,0.00,VWS V14.01,2013-07-11 17:46:00,
2013-07-11 10:56:00,72.8,64.8,29.87,NNW,329,0.0,0.0,76,0.00,,---,0.00,VWS V14.01,2013-07-11 17:56:00,
2013-07-11 11:06:00,73.0,65.4,29.87,SSW,202,0.0,0.0,77,0.00,,---,0.00,VWS V14.01,2013-07-11 18:06:00,
2013-07-11 11:11:00,72.8,64.8,29.87,SSW,202,0.0,0.0,76,0.00,,---,0.00,VWS V14.01,2013-07-11 18:11:00,
2013-07-11 11:16:00,72.8,64.8,29.87,SSW,202,0.0,0.0,76,0.00,,---,0.00,VWS V14.01,2013-07-11 18:16:00,
2013-07-11 11:21:00,73.0,65.0,29.87,SSW,202,0.0,0.0,76,0.00,,---,0.00,VWS V14.01,2013-07-11 18:21:00,
2013-07-11 11:31:00,73.3,65.3,29.87,SSW,202,0.0,0.0,76,0.00,,---,0.00,VWS V14.01,2013-07-11 18:31:00,
2013-07-11 11:41:00,73.9,66.2,29.87,SSW,202,0.0,0.0,77,0.00,,---,0.00,VWS V14.01,2013-07-11 18:41:00,
2013-07-11 11:51:00,74.0,66.7,29.87,SSW,200,0.0,0.0,78,0.00,,---,0.00,VWS V14.01,2013-07-11 18:51:00,
2013-07-11 11:56:00,74.2,66.5,29.87,SSW,200,0.0,0.0,77,0.00,,---,0.00,VWS V14.01,2013-07-11 18:56:00,
2013-07-11 12:06:00,74.9,67.2,29.87,SSW,200,0.0,0.0,77,0.00,,---,0.00,VWS V14.01,2013-07-11 19:06:00,
2013-07-11 12:11:00,75.3,66.8,29.87,SSW,200,0.0,0.0,75,0.00,,---,0.00,VWS V14.01,2013-07-11 19:11:00,
2013-07-11 12:21:00,76.1,67.6,29.87,SSW,213,0.0,0.0,75,0.00,,---,0.00,VWS V14.01,2013-07-11 19:21:00,
2013-07-11 12:31:00,77.4,68.5,29.86,SSW,213,0.0,0.0,74,0.00,,---,0.00,VWS V14.01,2013-07-11 19:31:00,
2013-07-11 12:41:00,78.5,67.5,29.86,SSW,213,0.0,0.0,69,0.00,,---,0.00,VWS V14.01,2013-07-11 19:41:00,
2013-07-11 12:51:00,79.2,66.0,29.86,SW,223,0.0,0.0,64,0.00,,---,0.00,VWS V14.01,2013-07-11 19:51:00,
2013-07-11 12:56:00,78.8,65.6,29.86,SW,223,0.0,0.0,64,0.00,,---,0.00,VWS V14.01,2013-07-11 19:56:00,
2013-07-11 13:06:00,79.2,66.0,29.86,SW,224,0.0,0.0,64,0.00,,---,0.00,VWS V14.01,2013-07-11 20:06:00,
2013-07-11 13:16:00,79.2,65.1,29.86,WNW,294,0.0,0.0,62,0.00,,---,0.00,VWS V14.01,2013-07-11 20:16:00,
2013-07-11 13:26:00,79.4,65.7,29.86,WSW,243,0.0,0.0,63,0.00,,---,0.00,VWS V14.01,2013-07-11 20:26:00,
2013-07-11 13:31:00,79.4,65.3,29.85,WSW,243,0.0,0.0,62,0.00,,---,0.00,VWS V14.01,2013-07-11 20:31:00,
2013-07-11 13:41:00,79.4,66.6,29.85,SW,230,1.0,2.0,65,0.00,,---,0.00,VWS V14.01,2013-07-11 20:41:00,
2013-07-11 13:56:00,79.4,67.1,29.85,WSW,239,0.0,2.0,66,0.00,,---,0.00,VWS V14.01,2013-07-11 20:56:00,
2013-07-11 14:01:00,79.4,66.6,29.85,WSW,237,0.0,4.0,65,0.00,,---,0.00,VWS V14.01,2013-07-11 21:01:00,
2013-07-11 14:16:00,79.2,66.4,29.84,SW,223,0.0,1.0,65,0.00,,---,0.00,VWS V14.01,2013-07-11 21:16:00,
2013-07-11 14:31:00,78.8,67.4,29.83,SSW,203,0.0,0.0,68,0.00,,---,0.00,VWS V14.01,2013-07-11 21:31:00,
2013-07-11 14:36:00,78.6,67.2,29.83,SSW,196,0.0,2.0,68,0.00,,---,0.00,VWS V14.01,2013-07-11 21:36:00,
2013-07-11 14:51:00,77.9,67.8,29.83,WSW,246,0.0,2.0,71,0.00,,---,0.00,VWS V14.01,2013-07-11 21:51:00,
2013-07-11 14:56:00,77.7,67.6,29.83,WSW,243,0.0,5.0,71,0.00,,---,0.00,VWS V14.01,2013-07-11 21:56:00,
2013-07-11 15:06:00,77.9,68.2,29.83,WSW,254,0.0,0.0,72,0.00,,---,0.00,VWS V14.01,2013-07-11 22:06:00,
2013-07-11 15:16:00,78.5,68.3,29.83,South,181,0.0,0.0,71,0.00,,---,0.00,VWS V14.01,2013-07-11 22:16:00,
2013-07-11 15:26:00,79.2,68.2,29.83,SSW,206,0.0,0.0,69,0.00,,---,0.00,VWS V14.01,2013-07-11 22:26:00,
2013-07-11 15:31:00,79.4,67.9,29.83,SSW,202,0.0,0.0,68,0.00,,---,0.00,VWS V14.01,2013-07-11 22:31:00,
2013-07-11 15:36:00,79.0,67.1,29.83,SSW,206,0.0,0.0,67,0.00,,---,0.00,VWS V14.01,2013-07-11 22:36:00,
2013-07-11 15:41:00,79.0,66.7,29.83,South,186,0.0,0.0,66,0.00,,---,0.00,VWS V14.01,2013-07-11 22:41:00,
2013-07-11 15:46:00,79.2,66.9,29.82,WSW,251,0.0,1.0,66,0.00,,---,0.00,VWS V14.01,2013-07-11 22:46:00,
2013-07-11 15:51:00,79.4,67.1,29.82,SW,226,0.0,0.0,66,0.00,,---,0.00,VWS V14.01,2013-07-11 22:51:00,
2013-07-11 16:01:00,80.1,67.3,29.82,West,265,0.0,0.0,65,0.00,,---,0.00,VWS V14.01,2013-07-11 23:01:00,
2013-07-11 16:06:00,80.7,66.9,29.82,West,278,0.0,2.0,63,0.00,,---,0.00,VWS V14.01,2013-07-11 23:06:00,
2013-07-11 16:16:00,80.5,66.3,29.82,SW,232,0.0,0.0,62,0.00,,---,0.00,VWS V14.01,2013-07-11 23:16:00,
2013-07-11 16:21:00,80.7,66.9,29.82,SSW,208,0.0,0.0,63,0.00,,---,0.00,VWS V14.01,2013-07-11 23:21:00,
2013-07-11 16:31:00,80.3,67.0,29.82,West,267,0.0,3.0,64,0.00,,---,0.00,VWS V14.01,2013-07-11 23:31:00,
2013-07-11 16:36:00,80.1,66.8,29.82,West,261,0.0,2.0,64,0.00,,---,0.00,VWS V14.01,2013-07-11 23:36:00,
2013-07-11 16:46:00,80.5,67.7,29.81,West,261,0.0,0.0,65,0.00,,---,0.00,VWS V14.01,2013-07-11 23:46:00,
2013-07-11 16:56:00,79.4,67.9,29.81,SW,234,0.0,0.0,68,0.00,,---,0.00,VWS V14.01,2013-07-11 23:56:00,
2013-07-11 17:01:00,79.2,68.2,29.81,SW,227,0.0,0.0,69,0.00,,---,0.00,VWS V14.01,2013-07-12 00:01:00,
2013-07-11 17:11:00,78.1,67.1,29.81,WSW,241,0.0,5.0,69,0.00,,---,0.00,VWS V14.01,2013-07-12 00:11:00,
2013-07-11 17:21:00,77.4,67.3,29.81,WNW,292,0.0,2.0,71,0.00,,---,0.00,VWS V14.01,2013-07-12 00:21:00,
2013-07-11 17:41:00,77.0,67.3,29.81,West,264,0.0,0.0,72,0.00,,---,0.00,VWS V14.01,2013-07-12 00:41:00,
2013-07-11 17:46:00,77.4,67.7,29.80,West,264,0.0,0.0,72,0.00,,---,0.00,VWS V14.01,2013-07-12 00:46:00,
2013-07-11 17:56:00,78.5,68.3,29.80,West,264,0.0,0.0,71,0.00,,---,0.00,VWS V14.01,2013-07-12 00:56:00,
2013-07-11 18:06:00,80.9,67.6,29.80,South,186,0.0,0.0,64,0.00,,---,0.00,VWS V14.01,2013-07-12 01:06:00,
2013-07-11 18:16:00,81.8,67.5,29.79,South,184,0.0,0.0,62,0.00,,---,0.00,VWS V14.01,2013-07-12 01:16:00,
2013-07-11 18:26:00,82.0,67.2,29.79,South,184,0.0,0.0,61,0.00,,---,0.00,VWS V14.01,2013-07-12 01:26:00,
2013-07-11 18:31:00,82.0,67.2,29.79,South,181,0.0,1.0,61,0.00,,---,0.00,VWS V14.01,2013-07-12 01:31:00,
2013-07-11 18:36:00,82.2,67.4,29.79,South,181,0.0,0.0,61,0.00,,---,0.00,VWS V14.01,2013-07-12 01:36:00,
2013-07-11 18:46:00,81.6,67.3,29.79,WSW,253,0.0,3.0,62,0.00,,---,0.00,VWS V14.01,2013-07-12 01:46:00,
2013-07-11 18:56:00,81.1,66.9,29.79,WSW,253,0.0,0.0,62,0.00,,---,0.00,VWS V14.01,2013-07-12 01:56:00,
2013-07-11 19:01:00,81.2,66.5,29.79,WSW,253,0.0,0.0,61,0.00,,---,0.00,VWS V14.01,2013-07-12 02:01:00,
2013-07-11 19:11:00,81.4,66.2,29.79,WSW,253,0.0,0.0,60,0.00,,---,0.00,VWS V14.01,2013-07-12 02:11:00,
2013-07-11 19:16:00,81.6,66.4,29.79,WSW,253,0.0,0.0,60,0.00,,---,0.00,VWS V14.01,2013-07-12 02:16:00,
2013-07-11 19:26:00,81.6,66.9,29.79,WSW,253,0.0,0.0,61,0.00,,---,0.00,VWS V14.01,2013-07-12 02:26:00,
2013-07-11 19:36:00,80.9,67.1,29.79,WSW,253,0.0,0.0,63,0.00,,---,0.00,VWS V14.01,2013-07-12 02:36:00,
2013-07-11 19:41:00,80.5,66.8,29.79,WSW,253,0.0,0.0,63,0.00,,---,0.00,VWS V14.01,2013-07-12 02:41:00,
2013-07-11 19:46:00,79.9,66.7,29.80,WSW,253,0.0,0.0,64,0.00,,---,0.00,VWS V14.01,2013-07-12 02:46:00,
2013-07-11 19:51:00,79.6,66.8,29.80,WSW,253,0.0,0.0,65,0.00,,---,0.00,VWS V14.01,2013-07-12 02:51:00,
2013-07-11 20:01:00,78.6,66.3,29.80,West,271,0.0,0.0,66,0.00,,---,0.00,VWS V14.01,2013-07-12 03:01:00,
2013-07-11 20:11:00,77.7,65.9,29.80,West,271,0.0,0.0,67,0.00,,---,0.00,VWS V14.01,2013-07-12 03:11:00,
2013-07-11 20:21:00,76.8,65.4,29.80,West,271,0.0,0.0,68,0.00,,---,0.00,VWS V14.01,2013-07-12 03:21:00,
2013-07-11 20:31:00,76.0,65.1,29.81,West,271,0.0,0.0,69,0.00,,---,0.00,VWS V14.01,2013-07-12 03:31:00,
2013-07-11 20:41:00,74.7,64.7,29.81,West,271,0.0,0.0,71,0.00,,---,0.00,VWS V14.01,2013-07-12 03:41:00,
2013-07-11 20:51:00,73.9,64.3,29.81,West,271,0.0,0.0,72,0.00,,---,0.00,VWS V14.01,2013-07-12 03:51:00,
2013-07-11 20:56:00,73.5,63.9,29.81,West,271,0.0,0.0,72,0.00,,---,0.00,VWS V14.01,2013-07-12 03:56:00,
2013-07-11 21:01:00,73.2,64.0,29.82,West,271,0.0,0.0,73,0.00,,---,0.00,VWS V14.01,2013-07-12 04:01:00,
2013-07-11 21:06:00,72.8,63.7,29.82,West,271,0.0,0.0,73,0.00,,---,0.00,VWS V14.01,2013-07-12 04:06:00,
2013-07-11 21:11:00,72.5,63.4,29.82,West,271,0.0,0.0,73,0.00,,---,0.00,VWS V14.01,2013-07-12 04:11:00,
2013-07-11 21:16:00,72.1,63.0,29.82,West,271,0.0,0.0,73,0.00,,---,0.00,VWS V14.01,2013-07-12 04:16:00,
2013-07-11 21:26:00,71.8,63.1,29.82,West,271,0.0,0.0,74,0.00,,---,0.00,VWS V14.01,2013-07-12 04:26:00,
2013-07-11 21:31:00,71.5,62.8,29.83,West,271,0.0,0.0,74,0.00,,---,0.00,VWS V14.01,2013-07-12 04:31:00,
2013-07-11 21:41:00,70.9,62.6,29.83,West,271,0.0,0.0,75,0.00,,---,0.00,VWS V14.01,2013-07-12 04:41:00,
2013-07-11 21:46:00,70.8,62.9,29.83,West,271,0.0,0.0,76,0.00,,---,0.00,VWS V14.01,2013-07-12 04:46:00,
2013-07-11 21:51:00,70.4,62.5,29.83,West,271,0.0,0.0,76,0.00,,---,0.00,VWS V14.01,2013-07-12 04:51:00,
2013-07-11 22:01:00,69.9,62.4,29.84,West,271,0.0,0.0,77,0.00,,---,0.00,VWS V14.01,2013-07-12 05:01:00,
2013-07-11 22:06:00,69.8,62.3,29.84,West,271,0.0,0.0,77,0.00,,---,0.00,VWS V14.01,2013-07-12 05:06:00,
2013-07-11 22:11:00,69.4,62.2,29.84,West,271,0.0,0.0,78,0.00,,---,0.00,VWS V14.01,2013-07-12 05:11:00,
2013-07-11 22:16:00,69.3,62.2,29.84,West,271,0.0,0.0,78,0.00,,---,0.00,VWS V14.01,2013-07-12 05:16:00,
2013-07-11 22:21:00,68.9,62.1,29.84,West,271,0.0,0.0,79,0.00,,---,0.00,VWS V14.01,2013-07-12 05:21:00,
2013-07-11 22:26:00,68.8,62.0,29.84,West,271,0.0,0.0,79,0.00,,---,0.00,VWS V14.01,2013-07-12 05:26:00,
2013-07-11 22:31:00,68.4,61.6,29.84,West,271,0.0,0.0,79,0.00,,---,0.00,VWS V14.01,2013-07-12 05:31:00,
2013-07-11 22:41:00,68.1,61.3,29.84,West,271,0.0,0.0,79,0.00,,---,0.00,VWS V14.01,2013-07-12 05:41:00,
2013-07-11 22:46:00,67.9,61.5,29.84,West,271,0.0,0.0,80,0.00,,---,0.00,VWS V14.01,2013-07-12 05:46:00,
2013-07-11 22:51:00,67.8,61.4,29.84,West,271,0.0,0.0,80,0.00,,---,0.00,VWS V14.01,2013-07-12 05:51:00,
2013-07-11 23:01:00,67.4,61.4,29.84,West,271,0.0,0.0,81,0.00,,---,0.00,VWS V14.01,2013-07-12 06:01:00,
2013-07-11 23:06:00,67.3,61.6,29.84,West,271,0.0,0.0,82,0.00,,---,0.00,VWS V14.01,2013-07-12 06:06:00,
2013-07-11 23:16:00,66.8,61.1,29.83,West,271,0.0,0.0,82,0.00,,---,0.00,VWS V14.01,2013-07-12 06:16:00,
2013-07-11 23:51:00,65.6,60.3,29.83,West,271,0.0,0.0,83,0.00,,---,0.00,VWS V14.01,2013-07-12 06:51:00,